createdAt,value
2019-05-19T00:00:46.115Z,97403.42
2019-05-19T00:02:49.939Z,97405.41
2019-05-19T00:04:53.736Z,97404.78
2019-05-19T00:06:57.497Z,97418.80
2019-05-19T00:09:01.317Z,97406.45
2019-05-19T00:11:05.205Z,97409.55
2019-05-19T00:13:09.020Z,97410.16
2019-05-19T00:15:12.899Z,97411.34
2019-05-19T00:17:16.643Z,97405.84
2019-05-19T00:19:26.611Z,97410.38
2019-05-19T00:21:25.969Z,97401.77
2019-05-19T00:23:29.776Z,97407.69
2019-05-19T00:25:34.393Z,97401.05
2019-05-19T00:27:38.361Z,97405.83
2019-05-19T00:29:42.194Z,97402.69
2019-05-19T00:31:46.032Z,97401.36
2019-05-19T00:33:49.817Z,97400.80
2019-05-19T00:35:53.685Z,97398.88
2019-05-19T00:37:57.558Z,97400.08
2019-05-19T00:40:01.342Z,97396.26
2019-05-19T00:42:06.297Z,97396.52
2019-05-19T00:44:10.066Z,97399.03
2019-05-19T00:46:13.955Z,97388.04
2019-05-19T00:48:17.730Z,97387.65
2019-05-19T00:50:21.626Z,97383.78
2019-05-19T00:52:25.360Z,97387.26
2019-05-19T00:54:29.178Z,97382.02
2019-05-19T00:56:33.827Z,97383.89
2019-05-19T00:58:40.084Z,97380.66
2019-05-19T01:00:43.933Z,97385.66
2019-05-19T01:02:47.668Z,97375.28
2019-05-19T01:04:51.464Z,97372.80
2019-05-19T01:06:55.344Z,97374.34
2019-05-19T01:09:00.107Z,97376.27
2019-05-19T01:11:04.050Z,97376.53
2019-05-19T01:13:07.804Z,97379.02
2019-05-19T01:15:11.796Z,97373.35
2019-05-19T01:17:15.617Z,97375.91
2019-05-19T01:19:19.430Z,97371.91
2019-05-19T01:21:23.870Z,97374.78
2019-05-19T01:23:27.637Z,97380.66
2019-05-19T01:25:31.531Z,97377.13
2019-05-19T01:27:35.342Z,97374.80
2019-05-19T01:29:39.175Z,97376.49
2019-05-19T01:31:43.041Z,97372.50
2019-05-19T01:33:46.871Z,97381.61
2019-05-19T01:35:50.696Z,97373.88
2019-05-19T01:37:56.421Z,97371.36
2019-05-19T01:40:00.321Z,97375.23
2019-05-19T01:42:04.214Z,97381.02
2019-05-19T01:44:08.106Z,97369.61
2019-05-19T01:46:11.842Z,97374.05
2019-05-19T01:48:15.628Z,97370.75
2019-05-19T01:50:20.179Z,97367.06
2019-05-19T01:52:23.946Z,97363.18
2019-05-19T01:54:27.779Z,97361.37
2019-05-19T01:56:31.583Z,97363.47
2019-05-19T01:58:35.444Z,97367.03
2019-05-19T02:00:39.192Z,97369.83
2019-05-19T02:02:43.060Z,97363.59
2019-05-19T02:04:46.909Z,97366.56
2019-05-19T02:06:50.698Z,97361.34
2019-05-19T02:08:54.486Z,97357.22
2019-05-19T02:10:58.289Z,97354.48
2019-05-19T02:13:05.041Z,97354.53
2019-05-19T02:15:08.388Z,97352.34
2019-05-19T02:17:12.170Z,97357.89
2019-05-19T02:19:16.105Z,97348.22
2019-05-19T02:21:19.935Z,97354.77
2019-05-19T02:23:23.661Z,97361.11
2019-05-19T02:25:27.550Z,97363.24
2019-05-19T02:27:31.367Z,97366.14
2019-05-19T02:29:35.210Z,97365.47
2019-05-19T02:31:38.974Z,97370.75
2019-05-19T02:33:42.867Z,97377.16
2019-05-19T02:35:49.762Z,97369.25
2019-05-19T02:37:53.572Z,97372.88
2019-05-19T02:39:57.522Z,97368.80
2019-05-19T02:42:04.072Z,97371.69
2019-05-19T02:44:08.492Z,97373.52
2019-05-19T02:46:12.748Z,97376.76
2019-05-19T02:48:18.138Z,97370.63
2019-05-19T02:50:22.868Z,97375.16
2019-05-19T02:52:29.427Z,97377.30
2019-05-19T02:54:34.961Z,97374.60
2019-05-19T02:56:40.207Z,97371.91
2019-05-19T02:58:44.548Z,97372.31
2019-05-19T03:00:48.294Z,97377.58
2019-05-19T03:02:52.096Z,97374.84
2019-05-19T03:04:55.938Z,97375.98
2019-05-19T03:07:00.740Z,97375.98
2019-05-19T03:09:05.418Z,97378.40
2019-05-19T03:11:09.280Z,97380.78
2019-05-19T03:13:13.166Z,97381.23
2019-05-19T03:15:17.156Z,97374.92
2019-05-19T03:17:20.870Z,97369.94
2019-05-19T03:19:24.792Z,97377.30
2019-05-19T03:21:28.592Z,97377.30
2019-05-19T03:23:32.375Z,97388.26
2019-05-19T03:25:36.208Z,97379.77
2019-05-19T03:27:40.001Z,97377.34
2019-05-19T03:29:48.200Z,97386.94
2019-05-19T03:32:12.506Z,97387.84
2019-05-19T03:34:15.155Z,97392.87
2019-05-19T03:36:18.968Z,97392.91
2019-05-19T03:38:22.918Z,97392.69
2019-05-19T03:40:27.703Z,97386.75
2019-05-19T03:42:31.482Z,97392.23
2019-05-19T03:44:35.315Z,97384.06
2019-05-19T03:46:39.116Z,97384.61
2019-05-19T03:48:42.983Z,97384.70
2019-05-19T03:50:47.744Z,97386.42
2019-05-19T03:52:51.536Z,97390.53
2019-05-19T03:54:55.329Z,97386.16
2019-05-19T03:56:59.143Z,97386.16
2019-05-19T03:59:02.978Z,97388.39
2019-05-19T04:01:06.768Z,97384.83
2019-05-19T04:03:10.640Z,97385.38
2019-05-19T04:05:15.724Z,97377.48
2019-05-19T04:07:19.494Z,97376.66
2019-05-19T04:09:23.280Z,97382.13
2019-05-19T04:11:27.106Z,97387.66
2019-05-19T04:13:30.887Z,97386.84
2019-05-19T04:15:34.711Z,97382.73
2019-05-19T04:17:38.539Z,97396.69
2019-05-19T04:19:42.487Z,97394.19
2019-05-19T04:21:49.114Z,97398.56
2019-05-19T04:23:51.753Z,97395.32
2019-05-19T04:25:56.491Z,97389.53
2019-05-19T04:28:00.273Z,97390.86
2019-05-19T04:30:04.576Z,97390.27
2019-05-19T04:32:08.310Z,97392.69
2019-05-19T04:34:12.115Z,97403.32
2019-05-19T04:36:17.014Z,97395.88
2019-05-19T04:38:20.844Z,97402.41
2019-05-19T04:40:24.628Z,97407.39
2019-05-19T04:42:28.459Z,97402.41
2019-05-19T04:44:32.247Z,97400.78
2019-05-19T04:46:36.976Z,97404.64
2019-05-19T04:48:40.785Z,97395.92
2019-05-19T04:50:44.582Z,97401.36
2019-05-19T04:52:48.408Z,97405.75
2019-05-19T04:54:52.182Z,97403.88
2019-05-19T04:56:55.986Z,97406.88
2019-05-19T04:58:59.783Z,97406.02
2019-05-19T05:01:03.684Z,97411.73
2019-05-19T05:03:07.493Z,97404.09
2019-05-19T05:05:12.266Z,97411.73
2019-05-19T05:07:17.179Z,97416.38
2019-05-19T05:09:20.972Z,97419.67
2019-05-19T05:11:25.788Z,97415.29
2019-05-19T05:13:29.595Z,97414.19
2019-05-19T05:15:33.479Z,97420.45
2019-05-19T05:17:37.302Z,97413.02
2019-05-19T05:19:41.095Z,97411.32
2019-05-19T05:21:45.943Z,97409.09
2019-05-19T05:23:49.732Z,97414.30
2019-05-19T05:25:53.544Z,97407.67
2019-05-19T05:27:57.341Z,97410.36
2019-05-19T05:30:01.154Z,97402.05
2019-05-19T05:32:05.940Z,97404.70
2019-05-19T05:34:09.834Z,97403.50
2019-05-19T05:36:13.570Z,97400.67
2019-05-19T05:38:17.382Z,97399.47
2019-05-19T05:40:21.240Z,97398.27
2019-05-19T05:42:27.065Z,97399.85
2019-05-19T05:44:31.852Z,97398.67
2019-05-19T05:46:35.766Z,97392.75
2019-05-19T05:48:40.570Z,97397.44
2019-05-19T05:50:44.390Z,97400.30
2019-05-19T05:52:48.224Z,97398.45
2019-05-19T05:54:52.015Z,97396.13
2019-05-19T05:56:55.810Z,97393.50
2019-05-19T05:58:59.617Z,97384.00
2019-05-19T06:01:03.427Z,97392.82
2019-05-19T06:03:07.220Z,97388.70
2019-05-19T06:05:11.185Z,97391.53
2019-05-19T06:07:14.924Z,97389.78
2019-05-19T06:09:18.728Z,97397.64
2019-05-19T06:11:22.517Z,97393.02
2019-05-19T06:13:26.340Z,97393.09
2019-05-19T06:15:30.178Z,97399.28
2019-05-19T06:17:33.972Z,97393.78
2019-05-19T06:19:39.782Z,97393.03
2019-05-19T06:21:43.603Z,97395.78
2019-05-19T06:23:47.377Z,97389.08
2019-05-19T06:25:51.190Z,97397.39
2019-05-19T06:27:55.021Z,97393.41
2019-05-19T06:29:58.807Z,97401.39
2019-05-19T06:32:09.622Z,97395.37
2019-05-19T06:34:14.404Z,97398.05
2019-05-19T06:36:18.289Z,97396.41
2019-05-19T06:38:22.103Z,97387.81
2019-05-19T06:40:26.899Z,97382.02
2019-05-19T06:42:30.636Z,97383.86
2019-05-19T06:44:34.462Z,97379.37
2019-05-19T06:46:38.228Z,97378.21
2019-05-19T06:48:42.037Z,97375.97
2019-05-19T06:50:47.872Z,97374.92
2019-05-19T06:52:51.724Z,97378.66
2019-05-19T06:54:55.486Z,97374.46
2019-05-19T06:56:59.305Z,97378.27
2019-05-19T06:59:03.127Z,97380.73
2019-05-19T07:01:06.906Z,97382.03
2019-05-19T07:03:10.782Z,97386.06
2019-05-19T07:05:15.676Z,97380.85
2019-05-19T07:07:19.438Z,97381.92
2019-05-19T07:09:23.368Z,97375.42
2019-05-19T07:11:28.100Z,97378.40
2019-05-19T07:13:32.902Z,97381.88
2019-05-19T07:15:36.721Z,97375.27
2019-05-19T07:17:40.519Z,97365.00
2019-05-19T07:19:44.331Z,97366.05
2019-05-19T07:21:48.217Z,97358.73
2019-05-19T07:23:53.195Z,97358.19
2019-05-19T07:25:56.973Z,97352.46
2019-05-19T07:28:00.803Z,97355.27
2019-05-19T07:30:05.088Z,97356.59
2019-05-19T07:32:08.950Z,97351.36
2019-05-19T07:34:13.791Z,97339.77
2019-05-19T07:36:17.667Z,97346.50
2019-05-19T07:38:21.525Z,97346.55
2019-05-19T07:40:26.986Z,97345.31
2019-05-19T07:42:31.849Z,97346.39
2019-05-19T07:44:35.710Z,97349.05
2019-05-19T07:46:40.556Z,97350.78
2019-05-19T07:48:44.352Z,97347.89
2019-05-19T07:50:49.138Z,97347.99
2019-05-19T07:52:53.083Z,97346.28
2019-05-19T07:54:57.867Z,97342.55
2019-05-19T07:57:01.696Z,97339.61
2019-05-19T07:59:07.991Z,97340.37
2019-05-19T08:01:11.861Z,97337.14
2019-05-19T08:05:18.330Z,97345.55
2019-05-19T08:07:22.189Z,97340.36
2019-05-19T08:09:25.939Z,97341.48
2019-05-19T08:11:29.742Z,97336.59
2019-05-19T08:13:33.538Z,97334.31
2019-05-19T08:15:37.357Z,97333.50
2019-05-19T08:17:41.142Z,97331.55
2019-05-19T08:19:45.086Z,97331.55
2019-05-19T08:21:49.023Z,97331.30
2019-05-19T08:24:00.562Z,97333.37
2019-05-19T08:25:58.639Z,97336.47
2019-05-19T08:28:08.309Z,97333.95
2019-05-19T08:30:08.489Z,97336.08
2019-05-19T08:32:12.275Z,97335.44
2019-05-19T08:34:16.251Z,97330.30
2019-05-19T08:36:20.158Z,97328.05
2019-05-19T08:38:23.983Z,97329.43
2019-05-19T08:40:27.800Z,97323.80
2019-05-19T08:42:31.592Z,97333.41
2019-05-19T08:44:35.393Z,97330.70
2019-05-19T08:46:39.193Z,97335.20
2019-05-19T08:48:43.004Z,97331.27
2019-05-19T08:50:46.890Z,97333.55
2019-05-19T08:52:50.701Z,97330.41
2019-05-19T08:54:54.524Z,97330.41
2019-05-19T08:56:58.305Z,97328.75
2019-05-19T08:59:02.127Z,97330.27
2019-05-19T09:01:05.921Z,97321.70
2019-05-19T09:03:09.802Z,97326.58
2019-05-19T09:05:13.823Z,97324.28
2019-05-19T09:07:17.638Z,97320.69
2019-05-19T09:09:21.434Z,97320.74
2019-05-19T09:11:25.341Z,97318.66
2019-05-19T09:13:29.278Z,97318.66
2019-05-19T09:15:33.066Z,97314.14
2019-05-19T09:17:36.849Z,97320.47
2019-05-19T09:19:40.783Z,97310.56
2019-05-19T09:21:44.567Z,97313.27
2019-05-19T09:23:48.378Z,97312.05
2019-05-19T09:25:52.172Z,97313.55
2019-05-19T09:27:55.976Z,97310.73
2019-05-19T09:29:59.788Z,97308.36
2019-05-19T09:32:03.661Z,97305.81
2019-05-19T09:34:07.489Z,97301.27
2019-05-19T09:36:11.289Z,97303.53
2019-05-19T09:38:15.091Z,97301.88
2019-05-19T09:40:19.040Z,97301.73
2019-05-19T09:42:22.791Z,97297.55
2019-05-19T09:44:26.606Z,97296.27
2019-05-19T09:46:30.521Z,97297.87
2019-05-19T09:48:34.332Z,97295.39
2019-05-19T09:50:38.197Z,97293.73
2019-05-19T09:52:42.023Z,97290.80
2019-05-19T09:54:46.103Z,97286.81
2019-05-19T09:56:49.927Z,97289.28
2019-05-19T09:58:53.754Z,97289.71
2019-05-19T10:00:57.665Z,97286.66
2019-05-19T10:03:01.456Z,97288.78
2019-05-19T10:05:06.084Z,97290.33
2019-05-19T10:07:10.091Z,97290.91
2019-05-19T10:09:22.250Z,97282.66
2019-05-19T10:11:55.241Z,97279.14
2019-05-19T10:13:59.143Z,97279.79
2019-05-19T10:16:03.014Z,97278.28
2019-05-19T10:18:07.782Z,97275.76
2019-05-19T10:20:14.140Z,97271.80
2019-05-19T10:22:18.024Z,97271.58
2019-05-19T10:24:21.890Z,97273.74
2019-05-19T10:26:26.713Z,97277.96
2019-05-19T10:28:30.501Z,97270.02
2019-05-19T10:30:34.328Z,97267.89
2019-05-19T10:32:39.165Z,97269.70
2019-05-19T10:34:42.973Z,97265.48
2019-05-19T10:36:46.778Z,97260.89
2019-05-19T10:38:50.545Z,97266.16
2019-05-19T10:40:54.475Z,97269.56
2019-05-19T10:43:00.342Z,97268.34
2019-05-19T10:45:05.171Z,97265.13
2019-05-19T10:47:08.932Z,97267.92
2019-05-19T10:49:12.732Z,97260.53
2019-05-19T10:51:16.534Z,97268.23
2019-05-19T10:53:20.324Z,97264.13
2019-05-19T10:55:35.599Z,97264.91
2019-05-19T10:57:29.663Z,97257.00
2019-05-19T10:59:33.532Z,97259.73
2019-05-19T11:01:37.300Z,97257.28
2019-05-19T11:03:41.083Z,97249.45
2019-05-19T11:05:44.915Z,97250.03
2019-05-19T11:07:48.706Z,97246.05
2019-05-19T11:09:52.494Z,97244.30
2019-05-19T11:11:56.317Z,97242.58
2019-05-19T11:14:00.113Z,97240.86
2019-05-19T11:16:03.999Z,97236.60
2019-05-19T11:18:07.819Z,97244.25
2019-05-19T11:20:12.306Z,97239.91
2019-05-19T11:22:16.038Z,97235.97
2019-05-19T11:24:19.840Z,97232.16
2019-05-19T11:26:23.650Z,97237.23
2019-05-19T11:28:27.506Z,97237.20
2019-05-19T11:30:32.507Z,97235.88
2019-05-19T11:32:36.282Z,97232.38
2019-05-19T11:34:40.095Z,97229.48
2019-05-19T11:36:43.885Z,97231.18
2019-05-19T11:38:47.702Z,97229.26
2019-05-19T11:40:51.839Z,97225.97
2019-05-19T11:42:56.609Z,97228.45
2019-05-19T11:45:00.454Z,97220.52
2019-05-19T11:47:04.231Z,97219.39
2019-05-19T11:49:08.020Z,97218.86
2019-05-19T11:51:11.836Z,97216.11
2019-05-19T11:53:15.622Z,97214.09
2019-05-19T11:55:19.504Z,97214.77
2019-05-19T11:57:23.246Z,97216.63
2019-05-19T11:59:27.042Z,97212.69
2019-05-19T12:01:30.861Z,97219.95
2019-05-19T12:03:34.723Z,97214.86
2019-05-19T12:05:39.514Z,97210.19
2019-05-19T12:07:43.288Z,97205.20
2019-05-19T12:09:48.096Z,97216.24
2019-05-19T12:11:52.068Z,97210.41
2019-05-19T12:13:55.805Z,97213.23
2019-05-19T12:15:59.634Z,97211.41
2019-05-19T12:18:03.445Z,97214.41
2019-05-19T12:20:07.969Z,97213.38
2019-05-19T12:22:11.751Z,97214.79
2019-05-19T12:24:15.575Z,97208.55
2019-05-19T12:26:23.106Z,97206.74
2019-05-19T12:28:24.902Z,97206.52
2019-05-19T12:30:28.904Z,97211.45
2019-05-19T12:32:32.813Z,97221.76
2019-05-19T12:34:36.617Z,97215.30
2019-05-19T12:36:40.480Z,97216.27
2019-05-19T12:38:44.344Z,97207.62
2019-05-19T12:40:48.127Z,97207.98
2019-05-19T12:42:51.931Z,97202.77
2019-05-19T12:44:55.727Z,97201.59
2019-05-19T12:46:59.531Z,97206.03
2019-05-19T12:49:03.410Z,97200.66
2019-05-19T12:51:07.231Z,97198.67
2019-05-19T12:53:11.990Z,97196.64
2019-05-19T12:55:18.266Z,97194.22
2019-05-19T12:57:22.020Z,97190.00
2019-05-19T12:59:25.824Z,97187.78
2019-05-19T13:01:29.770Z,97192.39
2019-05-19T13:03:33.563Z,97187.38
2019-05-19T13:05:37.412Z,97180.98
2019-05-19T13:07:41.153Z,97180.73
2019-05-19T13:09:45.865Z,97175.63
2019-05-19T13:11:49.665Z,97172.72
2019-05-19T13:13:53.485Z,97173.64
2019-05-19T13:15:57.274Z,97184.93
2019-05-19T13:18:01.100Z,97172.16
2019-05-19T13:20:05.291Z,97189.11
2019-05-19T13:22:09.008Z,97187.06
2019-05-19T13:24:12.799Z,97188.19
2019-05-19T13:26:16.590Z,97186.90
2019-05-19T13:28:20.416Z,97182.48
2019-05-19T13:30:24.215Z,97181.34
2019-05-19T13:32:28.029Z,97189.86
2019-05-19T13:34:31.833Z,97198.19
2019-05-19T13:36:35.628Z,97200.50
2019-05-19T13:38:39.439Z,97196.98
2019-05-19T13:40:44.237Z,97194.52
2019-05-19T13:42:48.069Z,97192.66
2019-05-19T13:44:51.847Z,97184.91
2019-05-19T13:46:55.666Z,97174.23
2019-05-19T13:48:59.554Z,97177.84
2019-05-19T13:51:03.459Z,97172.09
2019-05-19T13:53:07.316Z,97178.53
2019-05-19T13:55:11.325Z,97180.80
2019-05-19T13:57:15.068Z,97176.55
2019-05-19T13:59:18.903Z,97172.00
2019-05-19T14:01:28.674Z,97176.34
2019-05-19T14:03:29.271Z,97179.63
2019-05-19T14:05:33.075Z,97175.45
2019-05-19T14:07:36.852Z,97166.06
2019-05-19T14:09:40.674Z,97163.05
2019-05-19T14:11:44.513Z,97165.58
2019-05-19T14:13:48.290Z,97160.67
2019-05-19T14:15:53.090Z,97155.67
2019-05-19T14:17:56.897Z,97153.39
2019-05-19T14:20:00.700Z,97152.69
2019-05-19T14:22:04.513Z,97152.30
2019-05-19T14:24:08.338Z,97149.56
2019-05-19T14:26:12.192Z,97149.17
2019-05-19T14:28:15.926Z,97152.77
2019-05-19T14:30:20.174Z,97149.56
2019-05-19T14:32:23.938Z,97146.39
2019-05-19T14:34:27.735Z,97134.23
2019-05-19T14:36:31.528Z,97134.06
2019-05-19T14:38:36.361Z,97138.85
2019-05-19T14:40:40.209Z,97131.94
2019-05-19T14:42:51.302Z,97137.39
2019-05-19T14:44:55.062Z,97127.06
2019-05-19T14:46:58.842Z,97132.70
2019-05-19T14:49:02.805Z,97133.30
2019-05-19T14:51:06.561Z,97130.56
2019-05-19T14:53:10.353Z,97127.21
2019-05-19T14:55:15.137Z,97128.06
2019-05-19T14:57:18.882Z,97132.70
2019-05-19T14:59:22.701Z,97123.93
2019-05-19T15:01:26.574Z,97123.73
2019-05-19T15:03:30.406Z,97121.91
2019-05-19T15:05:34.207Z,97125.23
2019-05-19T15:07:38.003Z,97117.42
2019-05-19T15:09:41.827Z,97129.56
2019-05-19T15:11:45.610Z,97129.13
2019-05-19T15:13:49.405Z,97123.71
2019-05-19T15:15:53.216Z,97120.51
2019-05-19T15:17:57.012Z,97120.91
2019-05-19T15:20:00.825Z,97113.70
2019-05-19T15:22:04.774Z,97116.30
2019-05-19T15:24:08.542Z,97110.67
2019-05-19T15:26:12.327Z,97112.66
2019-05-19T15:28:16.216Z,97113.06
2019-05-19T15:30:20.199Z,97110.09
2019-05-19T15:32:24.002Z,97107.05
2019-05-19T15:34:27.758Z,97107.05
2019-05-19T15:36:32.641Z,97106.08
2019-05-19T15:38:36.377Z,97101.50
2019-05-19T15:40:40.207Z,97101.30
2019-05-19T15:42:43.982Z,97099.91
2019-05-19T15:44:47.797Z,97097.70
2019-05-19T15:46:51.678Z,97091.55
2019-05-19T15:48:55.509Z,97089.17
2019-05-19T15:51:00.327Z,97088.83
2019-05-19T15:53:04.318Z,97090.05
2019-05-19T15:55:08.291Z,97089.65
2019-05-19T15:57:12.142Z,97080.06
2019-05-19T15:59:16.044Z,97085.81
2019-05-19T16:01:19.864Z,97080.05
2019-05-19T16:03:23.653Z,97082.61
2019-05-19T16:05:27.456Z,97080.99
2019-05-19T16:07:31.269Z,97080.80
2019-05-19T16:09:35.061Z,97076.98
2019-05-19T16:11:38.879Z,97080.56
2019-05-19T16:13:42.703Z,97074.93
2019-05-19T16:15:46.516Z,97076.33
2019-05-19T16:17:51.304Z,97074.70
2019-05-19T16:19:55.124Z,97082.30
2019-05-19T16:21:58.899Z,97077.48
2019-05-19T16:24:02.720Z,97083.59
2019-05-19T16:26:06.513Z,97086.55
2019-05-19T16:28:10.316Z,97093.16
2019-05-19T16:30:14.278Z,97084.56
2019-05-19T16:32:18.022Z,97097.92
2019-05-19T16:34:21.871Z,97095.30
2019-05-19T16:36:26.750Z,97099.44
2019-05-19T16:38:30.555Z,97102.39
2019-05-19T16:40:34.447Z,97106.16
2019-05-19T16:42:38.277Z,97108.70
2019-05-19T16:44:42.076Z,97109.67
2019-05-19T16:46:45.945Z,97112.82
2019-05-19T16:48:49.774Z,97112.37
2019-05-19T16:50:53.591Z,97114.66
2019-05-19T16:52:57.455Z,97116.16
2019-05-19T16:55:19.325Z,97112.53
2019-05-19T16:57:23.135Z,97117.23
2019-05-19T16:59:26.922Z,97115.59
2019-05-19T17:01:30.743Z,97122.46
2019-05-19T17:03:34.521Z,97121.59
2019-05-19T17:05:38.348Z,97125.73
2019-05-19T17:07:42.123Z,97127.48
2019-05-19T17:09:45.959Z,97133.22
2019-05-19T17:11:49.739Z,97135.74
2019-05-19T17:13:53.551Z,97136.94
2019-05-19T17:15:57.366Z,97145.07
2019-05-19T17:18:01.134Z,97136.65
2019-05-19T17:20:05.490Z,97135.06
2019-05-19T17:22:09.273Z,97136.80
2019-05-19T17:24:13.215Z,97135.58
2019-05-19T17:26:16.976Z,97131.20
2019-05-19T17:28:20.771Z,97132.75
2019-05-19T17:30:24.936Z,97130.22
2019-05-19T17:32:28.686Z,97131.63
2019-05-19T17:34:32.504Z,97134.47
2019-05-19T17:36:36.303Z,97133.97
2019-05-19T17:38:40.111Z,97134.35
2019-05-19T17:40:43.915Z,97130.53
2019-05-19T17:42:47.779Z,97124.92
2019-05-19T17:44:51.517Z,97130.72
2019-05-19T17:46:55.336Z,97138.06
2019-05-19T17:48:59.111Z,97138.57
2019-05-19T17:51:02.998Z,97139.77
2019-05-19T17:53:07.221Z,97142.07
2019-05-19T17:55:11.683Z,97150.19
2019-05-19T17:57:15.677Z,97154.12
2019-05-19T17:59:20.565Z,97168.42
2019-05-19T18:01:24.429Z,97179.70
2019-05-19T18:03:28.729Z,97196.09
2019-05-19T18:05:32.662Z,97196.72
2019-05-19T18:07:36.521Z,97197.45
2019-05-19T18:09:41.443Z,97195.55
2019-05-19T18:11:45.412Z,97186.98
2019-05-19T18:13:49.156Z,97189.61
2019-05-19T18:15:53.002Z,97189.55
2019-05-19T18:17:57.874Z,97183.91
2019-05-19T18:20:01.699Z,97188.50
2019-05-19T18:22:05.656Z,97184.18
2019-05-19T18:24:09.399Z,97192.33
2019-05-19T18:26:13.244Z,97190.84
2019-05-19T18:28:17.006Z,97186.16
2019-05-19T18:30:20.966Z,97190.25
2019-05-19T18:32:25.758Z,97185.41
2019-05-19T18:34:29.541Z,97185.12
2019-05-19T18:36:33.448Z,97179.61
2019-05-19T18:38:37.323Z,97166.81
2019-05-19T18:40:41.049Z,97172.20
2019-05-19T18:42:44.873Z,97174.74
2019-05-19T18:44:48.668Z,97171.69
2019-05-19T18:46:52.470Z,97166.37
2019-05-19T18:48:56.265Z,97174.38
2019-05-19T18:51:00.439Z,97182.77
2019-05-19T18:53:04.270Z,97172.75
2019-05-19T18:55:08.635Z,97178.34
2019-05-19T18:57:14.540Z,97185.45
2019-05-19T18:59:18.395Z,97182.27
2019-05-19T19:01:22.219Z,97179.59
2019-05-19T19:03:26.354Z,97184.49
2019-05-19T19:05:30.170Z,97187.05
2019-05-19T19:07:51.756Z,97193.23
2019-05-19T19:09:55.518Z,97199.17
2019-05-19T19:11:59.284Z,97205.69
2019-05-19T19:14:03.109Z,97215.89
2019-05-19T19:16:06.975Z,97210.23
2019-05-19T19:18:10.737Z,97198.83
2019-05-19T19:20:14.802Z,97195.18
2019-05-19T19:22:19.569Z,97199.84
2019-05-19T19:24:23.354Z,97204.74
2019-05-19T19:26:27.134Z,97207.62
2019-05-19T19:28:30.970Z,97207.53
2019-05-19T19:30:34.835Z,97210.55
2019-05-19T19:32:38.671Z,97215.16
2019-05-19T19:34:42.483Z,97236.88
2019-05-19T19:36:46.266Z,97255.56
2019-05-19T19:38:50.078Z,97282.91
2019-05-19T19:40:54.474Z,97297.35
2019-05-19T19:43:00.500Z,97311.09
2019-05-19T19:45:04.666Z,97304.29
2019-05-19T19:47:08.447Z,97290.44
2019-05-19T19:49:12.293Z,97298.03
2019-05-19T19:51:16.068Z,97288.59
2019-05-19T19:53:19.861Z,97294.83
2019-05-19T19:55:23.697Z,97296.22
2019-05-19T19:57:27.539Z,97293.31
2019-05-19T19:59:31.298Z,97295.63
2019-05-19T20:01:35.100Z,97296.77
2019-05-19T20:03:40.392Z,97294.11
2019-05-19T20:05:44.459Z,97295.17
2019-05-19T20:07:48.385Z,97293.22
2019-05-19T20:09:54.272Z,97288.83
2019-05-19T20:11:58.179Z,97285.81
2019-05-19T20:14:02.267Z,97275.78
2019-05-19T20:16:05.989Z,97275.78
2019-05-19T20:18:09.875Z,97283.27
2019-05-19T20:20:13.752Z,97284.78
2019-05-19T20:22:17.517Z,97282.25
2019-05-19T20:24:21.360Z,97280.87
2019-05-19T20:26:25.182Z,97279.47
2019-05-19T20:28:28.917Z,97274.52
2019-05-19T20:30:36.104Z,97279.00
2019-05-19T20:32:38.359Z,97279.00
2019-05-19T20:34:42.169Z,97278.91
2019-05-19T20:36:45.970Z,97289.05
2019-05-19T20:38:49.881Z,97295.05
2019-05-19T20:40:53.678Z,97293.10
2019-05-19T20:42:57.556Z,97294.92
2019-05-19T20:45:01.308Z,97290.89
2019-05-19T20:47:05.156Z,97296.22
2019-05-19T20:49:08.886Z,97295.97
2019-05-19T20:51:12.687Z,97298.17
2019-05-19T20:53:16.495Z,97293.89
2019-05-19T20:55:21.033Z,97283.52
2019-05-19T20:57:25.918Z,97285.48
2019-05-19T20:59:29.663Z,97285.48
2019-05-19T21:01:33.460Z,97277.52
2019-05-19T21:03:37.252Z,97277.52
2019-05-19T21:05:41.113Z,97278.22
2019-05-19T21:07:44.868Z,97277.39
2019-05-19T21:09:48.687Z,97281.59
2019-05-19T21:11:52.543Z,97281.59
2019-05-19T21:13:56.385Z,97274.44
2019-05-19T21:16:00.254Z,97276.40
2019-05-19T21:18:04.228Z,97271.22
2019-05-19T21:20:08.591Z,97255.08
2019-05-19T21:22:12.402Z,97255.08
2019-05-19T21:24:16.205Z,97261.77
2019-05-19T21:26:20.087Z,97258.08
2019-05-19T21:28:23.815Z,97256.13
2019-05-19T21:30:27.644Z,97258.08
2019-05-19T21:32:31.418Z,97260.96
2019-05-19T21:34:35.248Z,97263.63
2019-05-19T21:36:40.083Z,97262.47
2019-05-19T21:38:43.879Z,97263.01
2019-05-19T21:40:47.668Z,97253.64
2019-05-19T21:42:51.469Z,97253.64
2019-05-19T21:44:55.289Z,97258.89
2019-05-19T21:46:59.074Z,97255.63
2019-05-19T21:49:02.866Z,97255.63
2019-05-19T21:51:06.676Z,97256.84
2019-05-19T21:53:10.818Z,97249.82
2019-05-19T21:55:14.696Z,97251.52
2019-05-19T21:57:18.500Z,97249.33
2019-05-19T21:59:23.315Z,97252.30
2019-05-19T22:01:27.276Z,97259.52
2019-05-19T22:03:33.067Z,97258.55
2019-05-19T22:05:51.210Z,97255.20
2019-05-19T22:08:13.785Z,97250.25
2019-05-19T22:10:17.720Z,97250.25
2019-05-19T22:12:22.492Z,97246.57
2019-05-19T22:14:26.293Z,97252.86
2019-05-19T22:16:30.107Z,97261.92
2019-05-19T22:18:33.995Z,97262.47
2019-05-19T22:20:37.833Z,97256.89
2019-05-19T22:22:41.608Z,97257.59
2019-05-19T22:24:45.497Z,97256.63
2019-05-19T22:26:49.339Z,97255.69
2019-05-19T22:28:53.127Z,97252.69
2019-05-19T22:30:56.929Z,97257.27
2019-05-19T22:33:00.723Z,97260.44
2019-05-19T22:35:04.790Z,97268.04
2019-05-19T22:37:08.625Z,97266.03
2019-05-19T22:39:12.577Z,97269.27
2019-05-19T22:41:16.358Z,97261.44
2019-05-19T22:43:20.170Z,97264.85
2019-05-19T22:45:24.068Z,97253.69
2019-05-19T22:47:27.948Z,97252.16
2019-05-19T22:49:50.901Z,97249.97
2019-05-19T22:51:54.795Z,97254.10
2019-05-19T22:53:58.621Z,97253.78
2019-05-19T22:56:02.461Z,97252.41
2019-05-19T22:58:06.225Z,97245.51
2019-05-19T23:00:10.682Z,97252.62
2019-05-19T23:02:14.469Z,97258.58
2019-05-19T23:04:18.240Z,97253.73
2019-05-19T23:06:22.075Z,97252.34
2019-05-19T23:08:25.928Z,97252.69
2019-05-19T23:10:29.857Z,97250.69
2019-05-19T23:12:33.675Z,97248.11
2019-05-19T23:14:37.472Z,97240.24
2019-05-19T23:16:41.283Z,97242.37
2019-05-19T23:18:45.069Z,97239.02
2019-05-19T23:20:48.891Z,97240.58
2019-05-19T23:22:53.005Z,97232.70
2019-05-19T23:24:57.341Z,97240.04
2019-05-19T23:27:01.133Z,97224.97
2019-05-19T23:29:04.990Z,97229.28
2019-05-19T23:31:08.838Z,97231.15
2019-05-19T23:33:12.628Z,97234.17
2019-05-19T23:35:16.575Z,97229.66
2019-05-19T23:37:20.340Z,97237.19
2019-05-19T23:39:24.131Z,97236.21
2019-05-19T23:41:27.947Z,97241.42
2019-05-19T23:43:31.736Z,97238.59
2019-05-19T23:45:35.545Z,97239.23
2019-05-19T23:47:39.352Z,97238.62
2019-05-19T23:49:43.151Z,97235.70
2019-05-19T23:51:46.960Z,97240.25
2019-05-19T23:53:50.761Z,97235.14
2019-05-19T23:55:54.563Z,97229.88
2019-05-19T23:57:58.345Z,97232.21
